sensor_id;sensor_type;location;lat;lon;timestamp;temperature;humidity
12025;DHT22;6073;53.230;10.444;2023-08-24T00:01:07;18.20;99.90
12025;DHT22;6073;53.230;10.444;2023-08-24T00:03:34;18.20;99.90
12025;DHT22;6073;53.230;10.444;2023-08-24T00:06:00;18.20;99.90
12025;DHT22;6073;53.230;10.444;2023-08-24T00:08:25;18.20;99.90
12025;DHT22;6073;53.230;10.444;2023-08-24T00:10:51;18.20;99.90
12025;DHT22;6073;53.230;10.444;2023-08-24T00:13:16;18.20;99.90
12025;DHT22;6073;53.230;10.444;2023-08-24T00:15:42;18.20;99.90
12025;DHT22;6073;53.230;10.444;2023-08-24T00:18:08;18.20;99.90
12025;DHT22;6073;53.230;10.444;2023-08-24T00:20:34;18.20;99.90
12025;DHT22;6073;53.230;10.444;2023-08-24T00:23:00;18.20;99.90
12025;DHT22;6073;53.230;10.444;2023-08-24T00:25:25;18.20;99.90
12025;DHT22;6073;53.230;10.444;2023-08-24T00:27:53;18.20;99.90
12025;DHT22;6073;53.230;10.444;2023-08-24T00:30:18;18.10;99.90
12025;DHT22;6073;53.230;10.444;2023-08-24T00:32:44;18.10;99.90
12025;DHT22;6073;53.230;10.444;2023-08-24T00:35:10;18.10;99.90
12025;DHT22;6073;53.230;10.444;2023-08-24T00:37:36;18.10;99.90
12025;DHT22;6073;53.230;10.444;2023-08-24T00:40:07;18.00;99.90
12025;DHT22;6073;53.230;10.444;2023-08-24T00:42:40;18.00;99.90
12025;DHT22;6073;53.230;10.444;2023-08-24T00:45:10;18.00;99.90
12025;DHT22;6073;53.230;10.444;2023-08-24T00:47:38;18.00;99.90
12025;DHT22;6073;53.230;10.444;2023-08-24T00:50:06;18.00;99.90
12025;DHT22;6073;53.230;10.444;2023-08-24T00:52:32;17.90;99.90
12025;DHT22;6073;53.230;10.444;2023-08-24T00:55:02;17.80;99.90
12025;DHT22;6073;53.230;10.444;2023-08-24T00:57:28;17.80;99.90
12025;DHT22;6073;53.230;10.444;2023-08-24T00:59:55;17.80;99.90
12025;DHT22;6073;53.230;10.444;2023-08-24T01:02:21;17.80;99.90
12025;DHT22;6073;53.230;10.444;2023-08-24T01:04:47;17.80;99.90
12025;DHT22;6073;53.230;10.444;2023-08-24T01:07:14;17.80;99.90
12025;DHT22;6073;53.230;10.444;2023-08-24T01:09:42;17.70;99.90
12025;DHT22;6073;53.230;10.444;2023-08-24T01:12:39;17.70;99.90
12025;DHT22;6073;53.230;10.444;2023-08-24T01:17:50;17.50;99.90
12025;DHT22;6073;53.230;10.444;2023-08-24T01:20:17;17.50;99.90
12025;DHT22;6073;53.230;10.444;2023-08-24T01:22:58;17.50;99.90
12025;DHT22;6073;53.230;10.444;2023-08-24T01:25:53;17.50;99.90
12025;DHT22;6073;53.230;10.444;2023-08-24T01:28:19;17.50;99.90
12025;DHT22;6073;53.230;10.444;2023-08-24T01:30:46;17.50;99.90
12025;DHT22;6073;53.230;10.444;2023-08-24T01:33:13;17.40;99.90
12025;DHT22;6073;53.230;10.444;2023-08-24T01:35:39;17.40;99.90
12025;DHT22;6073;53.230;10.444;2023-08-24T01:38:05;17.40;99.90
12025;DHT22;6073;53.230;10.444;2023-08-24T01:41:30;17.40;99.90
12025;DHT22;6073;53.230;10.444;2023-08-24T01:43:51;17.30;99.90
12025;DHT22;6073;53.230;10.444;2023-08-24T01:46:19;17.30;99.90
12025;DHT22;6073;53.230;10.444;2023-08-24T01:48:47;17.20;99.90
12025;DHT22;6073;53.230;10.444;2023-08-24T01:51:13;17.10;99.90
12025;DHT22;6073;53.230;10.444;2023-08-24T01:53:40;17.10;99.90
12025;DHT22;6073;53.230;10.444;2023-08-24T01:56:14;17.00;99.90
12025;DHT22;6073;53.230;10.444;2023-08-24T01:58:40;17.00;99.90
12025;DHT22;6073;53.230;10.444;2023-08-24T02:01:05;16.90;99.90
12025;DHT22;6073;53.230;10.444;2023-08-24T02:03:32;16.90;99.90
12025;DHT22;6073;53.230;10.444;2023-08-24T02:05:58;16.90;99.90
12025;DHT22;6073;53.230;10.444;2023-08-24T02:08:23;16.80;99.90
12025;DHT22;6073;53.230;10.444;2023-08-24T02:10:49;16.70;99.90
12025;DHT22;6073;53.230;10.444;2023-08-24T02:13:14;16.70;99.90
12025;DHT22;6073;53.230;10.444;2023-08-24T02:15:40;16.60;99.90
12025;DHT22;6073;53.230;10.444;2023-08-24T02:18:06;16.50;99.90
12025;DHT22;6073;53.230;10.444;2023-08-24T02:20:36;16.50;99.90
12025;DHT22;6073;53.230;10.444;2023-08-24T02:23:03;16.50;99.90
12025;DHT22;6073;53.230;10.444;2023-08-24T02:25:28;16.50;99.90
12025;DHT22;6073;53.230;10.444;2023-08-24T02:27:54;16.50;99.90
12025;DHT22;6073;53.230;10.444;2023-08-24T02:30:19;16.60;99.90
12025;DHT22;6073;53.230;10.444;2023-08-24T02:32:45;16.60;99.90
12025;DHT22;6073;53.230;10.444;2023-08-24T02:35:10;16.60;99.90
12025;DHT22;6073;53.230;10.444;2023-08-24T02:37:36;16.60;99.90
12025;DHT22;6073;53.230;10.444;2023-08-24T02:40:01;16.60;99.90
12025;DHT22;6073;53.230;10.444;2023-08-24T02:42:30;16.60;99.90
12025;DHT22;6073;53.230;10.444;2023-08-24T02:44:56;16.50;99.90
12025;DHT22;6073;53.230;10.444;2023-08-24T02:47:22;16.50;99.90
12025;DHT22;6073;53.230;10.444;2023-08-24T02:49:47;16.50;99.90
12025;DHT22;6073;53.230;10.444;2023-08-24T02:52:12;16.40;99.90
12025;DHT22;6073;53.230;10.444;2023-08-24T02:54:38;16.40;99.90
12025;DHT22;6073;53.230;10.444;2023-08-24T02:57:03;16.30;99.90
12025;DHT22;6073;53.230;10.444;2023-08-24T02:59:29;16.30;99.90
12025;DHT22;6073;53.230;10.444;2023-08-24T03:01:54;16.30;99.90
12025;DHT22;6073;53.230;10.444;2023-08-24T03:04:20;16.20;99.90
12025;DHT22;6073;53.230;10.444;2023-08-24T03:06:46;16.20;99.90
12025;DHT22;6073;53.230;10.444;2023-08-24T03:09:12;16.10;99.90
12025;DHT22;6073;53.230;10.444;2023-08-24T03:11:38;16.10;99.90
12025;DHT22;6073;53.230;10.444;2023-08-24T03:14:03;16.10;99.90
12025;DHT22;6073;53.230;10.444;2023-08-24T03:16:29;16.10;99.90
12025;DHT22;6073;53.230;10.444;2023-08-24T03:18:55;16.10;99.90
12025;DHT22;6073;53.230;10.444;2023-08-24T03:21:20;16.10;99.90
12025;DHT22;6073;53.230;10.444;2023-08-24T03:23:46;16.10;99.90
12025;DHT22;6073;53.230;10.444;2023-08-24T03:26:11;16.10;99.90
12025;DHT22;6073;53.230;10.444;2023-08-24T03:28:37;16.10;99.90
12025;DHT22;6073;53.230;10.444;2023-08-24T03:31:02;16.00;99.90
12025;DHT22;6073;53.230;10.444;2023-08-24T03:33:28;16.00;99.90
12025;DHT22;6073;53.230;10.444;2023-08-24T03:35:54;16.00;99.90
12025;DHT22;6073;53.230;10.444;2023-08-24T03:38:19;16.00;99.90
12025;DHT22;6073;53.230;10.444;2023-08-24T03:40:45;15.90;99.90
12025;DHT22;6073;53.230;10.444;2023-08-24T03:43:11;16.00;99.90
12025;DHT22;6073;53.230;10.444;2023-08-24T03:45:36;16.00;99.90
12025;DHT22;6073;53.230;10.444;2023-08-24T03:48:02;16.00;99.90
12025;DHT22;6073;53.230;10.444;2023-08-24T03:50:27;15.90;99.90
12025;DHT22;6073;53.230;10.444;2023-08-24T03:52:54;15.90;99.90
12025;DHT22;6073;53.230;10.444;2023-08-24T03:55:21;15.90;99.90
12025;DHT22;6073;53.230;10.444;2023-08-24T03:57:46;15.90;99.90
12025;DHT22;6073;53.230;10.444;2023-08-24T04:00:13;15.90;99.90
12025;DHT22;6073;53.230;10.444;2023-08-24T04:02:40;15.80;99.90
12025;DHT22;6073;53.230;10.444;2023-08-24T04:05:06;15.80;99.90
12025;DHT22;6073;53.230;10.444;2023-08-24T04:07:32;15.70;99.90
12025;DHT22;6073;53.230;10.444;2023-08-24T04:09:58;15.70;99.90
12025;DHT22;6073;53.230;10.444;2023-08-24T04:12:24;15.60;99.90
12025;DHT22;6073;53.230;10.444;2023-08-24T04:14:49;15.60;99.90
12025;DHT22;6073;53.230;10.444;2023-08-24T04:17:15;15.60;99.90
12025;DHT22;6073;53.230;10.444;2023-08-24T04:19:40;15.60;99.90
12025;DHT22;6073;53.230;10.444;2023-08-24T04:22:06;15.60;99.90
12025;DHT22;6073;53.230;10.444;2023-08-24T04:24:31;15.70;99.90
12025;DHT22;6073;53.230;10.444;2023-08-24T04:26:57;15.70;99.90
12025;DHT22;6073;53.230;10.444;2023-08-24T04:29:23;15.70;99.90
12025;DHT22;6073;53.230;10.444;2023-08-24T04:31:48;15.80;99.90
12025;DHT22;6073;53.230;10.444;2023-08-24T04:34:14;15.80;99.90
12025;DHT22;6073;53.230;10.444;2023-08-24T04:36:39;15.90;99.90
12025;DHT22;6073;53.230;10.444;2023-08-24T04:39:05;16.00;99.90
12025;DHT22;6073;53.230;10.444;2023-08-24T04:41:30;16.00;99.90
12025;DHT22;6073;53.230;10.444;2023-08-24T04:43:56;16.10;99.90
12025;DHT22;6073;53.230;10.444;2023-08-24T04:46:21;16.10;99.90
12025;DHT22;6073;53.230;10.444;2023-08-24T04:48:47;16.10;99.90
12025;DHT22;6073;53.230;10.444;2023-08-24T04:51:13;16.20;99.90
12025;DHT22;6073;53.230;10.444;2023-08-24T04:53:39;16.30;99.90
12025;DHT22;6073;53.230;10.444;2023-08-24T04:56:04;16.30;99.90
12025;DHT22;6073;53.230;10.444;2023-08-24T04:58:30;16.40;99.90
12025;DHT22;6073;53.230;10.444;2023-08-24T05:00:55;16.40;99.90
12025;DHT22;6073;53.230;10.444;2023-08-24T05:03:21;16.50;99.90
12025;DHT22;6073;53.230;10.444;2023-08-24T05:05:47;16.50;99.90
12025;DHT22;6073;53.230;10.444;2023-08-24T05:08:13;16.50;99.90
12025;DHT22;6073;53.230;10.444;2023-08-24T05:10:38;16.60;99.90
12025;DHT22;6073;53.230;10.444;2023-08-24T05:13:04;16.60;99.90
12025;DHT22;6073;53.230;10.444;2023-08-24T05:15:30;16.60;99.90
12025;DHT22;6073;53.230;10.444;2023-08-24T05:17:55;16.60;99.90
12025;DHT22;6073;53.230;10.444;2023-08-24T05:20:28;16.60;99.90
12025;DHT22;6073;53.230;10.444;2023-08-24T05:22:54;16.60;99.90
12025;DHT22;6073;53.230;10.444;2023-08-24T05:25:23;16.50;99.90
12025;DHT22;6073;53.230;10.444;2023-08-24T05:27:49;16.50;99.90
12025;DHT22;6073;53.230;10.444;2023-08-24T05:30:14;16.60;99.90
12025;DHT22;6073;53.230;10.444;2023-08-24T05:32:40;16.60;99.90
12025;DHT22;6073;53.230;10.444;2023-08-24T05:35:06;16.70;99.90
12025;DHT22;6073;53.230;10.444;2023-08-24T05:37:32;16.70;99.90
12025;DHT22;6073;53.230;10.444;2023-08-24T05:39:59;16.80;99.90
12025;DHT22;6073;53.230;10.444;2023-08-24T05:42:25;16.90;99.90
12025;DHT22;6073;53.230;10.444;2023-08-24T05:44:50;17.00;99.90
12025;DHT22;6073;53.230;10.444;2023-08-24T05:47:16;17.00;99.90
12025;DHT22;6073;53.230;10.444;2023-08-24T05:49:41;17.10;99.90
12025;DHT22;6073;53.230;10.444;2023-08-24T05:52:07;17.10;99.90
12025;DHT22;6073;53.230;10.444;2023-08-24T05:54:32;17.10;99.90
12025;DHT22;6073;53.230;10.444;2023-08-24T05:56:58;17.10;99.90
12025;DHT22;6073;53.230;10.444;2023-08-24T05:59:27;17.20;99.90
12025;DHT22;6073;53.230;10.444;2023-08-24T06:01:52;17.20;99.90
12025;DHT22;6073;53.230;10.444;2023-08-24T06:06:46;17.20;99.90
12025;DHT22;6073;53.230;10.444;2023-08-24T06:09:11;17.30;99.90
12025;DHT22;6073;53.230;10.444;2023-08-24T06:11:37;17.30;99.90
12025;DHT22;6073;53.230;10.444;2023-08-24T06:14:03;17.30;99.90
12025;DHT22;6073;53.230;10.444;2023-08-24T06:16:29;17.50;99.90
12025;DHT22;6073;53.230;10.444;2023-08-24T06:18:54;17.70;99.90
12025;DHT22;6073;53.230;10.444;2023-08-24T06:21:20;18.10;99.90
12025;DHT22;6073;53.230;10.444;2023-08-24T06:23:46;18.50;99.90
12025;DHT22;6073;53.230;10.444;2023-08-24T06:26:13;18.90;99.90
12025;DHT22;6073;53.230;10.444;2023-08-24T06:28:39;19.40;99.90
12025;DHT22;6073;53.230;10.444;2023-08-24T06:31:05;19.80;99.90
12025;DHT22;6073;53.230;10.444;2023-08-24T06:33:34;20.30;99.90
12025;DHT22;6073;53.230;10.444;2023-08-24T06:36:01;20.80;99.90
12025;DHT22;6073;53.230;10.444;2023-08-24T06:38:27;21.20;99.90
12025;DHT22;6073;53.230;10.444;2023-08-24T06:40:54;21.80;99.90
12025;DHT22;6073;53.230;10.444;2023-08-24T06:43:19;22.20;99.90
12025;DHT22;6073;53.230;10.444;2023-08-24T06:45:45;22.30;99.90
12025;DHT22;6073;53.230;10.444;2023-08-24T06:48:11;22.90;99.90
12025;DHT22;6073;53.230;10.444;2023-08-24T06:50:36;23.20;99.90
12025;DHT22;6073;53.230;10.444;2023-08-24T06:53:03;23.40;99.90
12025;DHT22;6073;53.230;10.444;2023-08-24T06:55:29;23.40;99.90
12025;DHT22;6073;53.230;10.444;2023-08-24T06:57:55;23.80;99.90
12025;DHT22;6073;53.230;10.444;2023-08-24T07:00:21;23.90;99.90
12025;DHT22;6073;53.230;10.444;2023-08-24T07:02:47;24.00;99.90
12025;DHT22;6073;53.230;10.444;2023-08-24T07:05:14;24.10;99.90
12025;DHT22;6073;53.230;10.444;2023-08-24T07:07:40;24.10;99.90
12025;DHT22;6073;53.230;10.444;2023-08-24T07:10:09;24.40;99.90
12025;DHT22;6073;53.230;10.444;2023-08-24T07:12:35;24.40;99.90
12025;DHT22;6073;53.230;10.444;2023-08-24T07:15:01;24.20;99.90
12025;DHT22;6073;53.230;10.444;2023-08-24T07:17:27;24.40;99.90
12025;DHT22;6073;53.230;10.444;2023-08-24T07:19:53;24.00;99.90
12025;DHT22;6073;53.230;10.444;2023-08-24T07:22:19;24.30;99.90
12025;DHT22;6073;53.230;10.444;2023-08-24T07:24:45;24.50;99.90
12025;DHT22;6073;53.230;10.444;2023-08-24T07:27:11;24.60;99.90
12025;DHT22;6073;53.230;10.444;2023-08-24T07:29:36;24.70;99.90
12025;DHT22;6073;53.230;10.444;2023-08-24T07:32:02;25.00;99.90
12025;DHT22;6073;53.230;10.444;2023-08-24T07:34:28;25.30;99.90
12025;DHT22;6073;53.230;10.444;2023-08-24T07:36:54;25.50;99.90
12025;DHT22;6073;53.230;10.444;2023-08-24T07:39:20;25.30;99.90
12025;DHT22;6073;53.230;10.444;2023-08-24T07:41:46;25.30;99.90
12025;DHT22;6073;53.230;10.444;2023-08-24T07:44:12;25.50;99.90
12025;DHT22;6073;53.230;10.444;2023-08-24T07:46:39;25.70;99.90
12025;DHT22;6073;53.230;10.444;2023-08-24T07:49:05;25.70;99.90
12025;DHT22;6073;53.230;10.444;2023-08-24T07:51:33;25.90;99.90
12025;DHT22;6073;53.230;10.444;2023-08-24T07:54:00;25.80;99.90
12025;DHT22;6073;53.230;10.444;2023-08-24T07:56:25;25.60;99.90
12025;DHT22;6073;53.230;10.444;2023-08-24T07:58:51;25.90;99.90
12025;DHT22;6073;53.230;10.444;2023-08-24T08:01:16;26.00;99.90
12025;DHT22;6073;53.230;10.444;2023-08-24T08:03:42;26.20;99.90
12025;DHT22;6073;53.230;10.444;2023-08-24T08:06:08;26.40;99.90
12025;DHT22;6073;53.230;10.444;2023-08-24T08:08:33;26.60;99.90
12025;DHT22;6073;53.230;10.444;2023-08-24T08:11:00;26.60;99.90
12025;DHT22;6073;53.230;10.444;2023-08-24T08:13:30;26.20;99.90
12025;DHT22;6073;53.230;10.444;2023-08-24T08:16:03;26.50;99.90
12025;DHT22;6073;53.230;10.444;2023-08-24T08:18:29;27.00;99.90
12025;DHT22;6073;53.230;10.444;2023-08-24T08:20:54;26.80;99.90
12025;DHT22;6073;53.230;10.444;2023-08-24T08:23:20;26.50;99.90
12025;DHT22;6073;53.230;10.444;2023-08-24T08:25:46;26.80;99.90
12025;DHT22;6073;53.230;10.444;2023-08-24T08:28:11;26.70;99.90
12025;DHT22;6073;53.230;10.444;2023-08-24T08:30:37;27.00;99.90
12025;DHT22;6073;53.230;10.444;2023-08-24T08:33:03;27.00;99.90
12025;DHT22;6073;53.230;10.444;2023-08-24T08:35:28;27.50;99.90
12025;DHT22;6073;53.230;10.444;2023-08-24T08:37:54;27.20;99.90
12025;DHT22;6073;53.230;10.444;2023-08-24T08:40:19;27.10;99.90
12025;DHT22;6073;53.230;10.444;2023-08-24T08:42:45;26.80;99.90
12025;DHT22;6073;53.230;10.444;2023-08-24T08:45:11;27.40;99.90
12025;DHT22;6073;53.230;10.444;2023-08-24T08:47:38;27.30;99.90
12025;DHT22;6073;53.230;10.444;2023-08-24T08:50:04;27.70;99.90
12025;DHT22;6073;53.230;10.444;2023-08-24T08:52:31;28.10;99.90
12025;DHT22;6073;53.230;10.444;2023-08-24T08:54:57;27.90;99.90
12025;DHT22;6073;53.230;10.444;2023-08-24T08:57:25;28.10;99.90
12025;DHT22;6073;53.230;10.444;2023-08-24T08:59:52;28.10;99.90
12025;DHT22;6073;53.230;10.444;2023-08-24T09:02:19;28.00;99.90
12025;DHT22;6073;53.230;10.444;2023-08-24T09:04:45;28.20;99.90
12025;DHT22;6073;53.230;10.444;2023-08-24T09:07:13;28.00;99.90
12025;DHT22;6073;53.230;10.444;2023-08-24T09:09:39;27.90;99.90
12025;DHT22;6073;53.230;10.444;2023-08-24T09:12:05;27.60;99.90
12025;DHT22;6073;53.230;10.444;2023-08-24T09:14:32;27.70;99.90
12025;DHT22;6073;53.230;10.444;2023-08-24T09:16:58;27.80;99.90
12025;DHT22;6073;53.230;10.444;2023-08-24T09:19:31;27.70;99.90
12025;DHT22;6073;53.230;10.444;2023-08-24T09:21:57;27.50;99.90
12025;DHT22;6073;53.230;10.444;2023-08-24T09:24:31;27.20;99.90
12025;DHT22;6073;53.230;10.444;2023-08-24T09:26:57;26.70;99.90
12025;DHT22;6073;53.230;10.444;2023-08-24T09:29:23;26.60;99.90
12025;DHT22;6073;53.230;10.444;2023-08-24T09:31:50;26.80;99.90
12025;DHT22;6073;53.230;10.444;2023-08-24T09:34:19;26.70;99.90
12025;DHT22;6073;53.230;10.444;2023-08-24T09:36:51;26.50;99.90
12025;DHT22;6073;53.230;10.444;2023-08-24T09:39:17;26.80;99.90
12025;DHT22;6073;53.230;10.444;2023-08-24T09:41:48;26.80;99.90
12025;DHT22;6073;53.230;10.444;2023-08-24T09:44:14;26.30;99.90
12025;DHT22;6073;53.230;10.444;2023-08-24T09:46:40;26.20;99.90
12025;DHT22;6073;53.230;10.444;2023-08-24T09:49:07;26.10;99.90
12025;DHT22;6073;53.230;10.444;2023-08-24T09:51:34;26.10;99.90
12025;DHT22;6073;53.230;10.444;2023-08-24T09:54:04;26.20;99.90
12025;DHT22;6073;53.230;10.444;2023-08-24T09:56:37;25.90;99.90
12025;DHT22;6073;53.230;10.444;2023-08-24T09:59:14;25.60;99.90
12025;DHT22;6073;53.230;10.444;2023-08-24T10:01:42;25.70;99.90
12025;DHT22;6073;53.230;10.444;2023-08-24T10:04:09;25.70;99.90
12025;DHT22;6073;53.230;10.444;2023-08-24T10:06:36;25.80;99.90
12025;DHT22;6073;53.230;10.444;2023-08-24T10:09:07;25.80;99.90
12025;DHT22;6073;53.230;10.444;2023-08-24T10:11:36;26.00;99.90
12025;DHT22;6073;53.230;10.444;2023-08-24T10:14:07;26.20;99.90
12025;DHT22;6073;53.230;10.444;2023-08-24T10:16:36;26.40;99.90
12025;DHT22;6073;53.230;10.444;2023-08-24T10:19:02;26.50;99.90
12025;DHT22;6073;53.230;10.444;2023-08-24T10:21:29;26.60;99.90
12025;DHT22;6073;53.230;10.444;2023-08-24T10:23:56;26.30;99.90
12025;DHT22;6073;53.230;10.444;2023-08-24T10:26:23;26.20;99.90
12025;DHT22;6073;53.230;10.444;2023-08-24T10:28:50;26.10;99.90
12025;DHT22;6073;53.230;10.444;2023-08-24T10:31:17;26.20;99.90
12025;DHT22;6073;53.230;10.444;2023-08-24T10:33:44;26.50;99.90
12025;DHT22;6073;53.230;10.444;2023-08-24T10:36:10;26.40;99.90
12025;DHT22;6073;53.230;10.444;2023-08-24T10:38:42;26.30;99.90
12025;DHT22;6073;53.230;10.444;2023-08-24T10:41:08;26.40;99.90
12025;DHT22;6073;53.230;10.444;2023-08-24T10:43:35;26.40;99.90
12025;DHT22;6073;53.230;10.444;2023-08-24T10:46:02;26.50;99.90
12025;DHT22;6073;53.230;10.444;2023-08-24T10:48:31;26.50;99.90
12025;DHT22;6073;53.230;10.444;2023-08-24T10:53:42;26.60;99.90
12025;DHT22;6073;53.230;10.444;2023-08-24T10:56:13;26.50;99.90
12025;DHT22;6073;53.230;10.444;2023-08-24T10:58:40;26.80;99.90
12025;DHT22;6073;53.230;10.444;2023-08-24T11:01:05;26.80;99.90
12025;DHT22;6073;53.230;10.444;2023-08-24T11:03:32;26.70;99.90
12025;DHT22;6073;53.230;10.444;2023-08-24T11:06:00;26.90;99.90
12025;DHT22;6073;53.230;10.444;2023-08-24T11:08:48;27.00;99.90
12025;DHT22;6073;53.230;10.444;2023-08-24T11:11:21;26.90;99.90
12025;DHT22;6073;53.230;10.444;2023-08-24T11:14:18;26.80;99.90
12025;DHT22;6073;53.230;10.444;2023-08-24T11:17:18;27.10;99.90
12025;DHT22;6073;53.230;10.444;2023-08-24T11:19:51;27.10;99.90
12025;DHT22;6073;53.230;10.444;2023-08-24T11:22:20;27.10;99.90
12025;DHT22;6073;53.230;10.444;2023-08-24T11:24:46;27.30;99.90
12025;DHT22;6073;53.230;10.444;2023-08-24T11:27:12;27.40;99.90
12025;DHT22;6073;53.230;10.444;2023-08-24T11:29:38;27.10;99.90
12025;DHT22;6073;53.230;10.444;2023-08-24T11:32:03;27.00;99.90
12025;DHT22;6073;53.230;10.444;2023-08-24T11:34:30;26.80;99.90
12025;DHT22;6073;53.230;10.444;2023-08-24T11:36:56;26.50;99.90
12025;DHT22;6073;53.230;10.444;2023-08-24T11:39:22;26.30;99.90
12025;DHT22;6073;53.230;10.444;2023-08-24T11:42:05;26.30;99.90
12025;DHT22;6073;53.230;10.444;2023-08-24T11:44:45;26.80;99.90
12025;DHT22;6073;53.230;10.444;2023-08-24T11:47:13;27.00;99.90
12025;DHT22;6073;53.230;10.444;2023-08-24T11:49:39;27.20;99.90
12025;DHT22;6073;53.230;10.444;2023-08-24T11:52:05;27.30;99.90
12025;DHT22;6073;53.230;10.444;2023-08-24T11:54:34;27.40;99.90
12025;DHT22;6073;53.230;10.444;2023-08-24T11:57:06;27.10;99.90
12025;DHT22;6073;53.230;10.444;2023-08-24T11:59:31;26.90;99.90
12025;DHT22;6073;53.230;10.444;2023-08-24T12:01:57;27.10;99.90
12025;DHT22;6073;53.230;10.444;2023-08-24T12:04:24;27.40;99.90
12025;DHT22;6073;53.230;10.444;2023-08-24T12:06:49;27.20;99.90
12025;DHT22;6073;53.230;10.444;2023-08-24T12:09:15;27.20;99.90
12025;DHT22;6073;53.230;10.444;2023-08-24T12:11:41;27.10;99.90
12025;DHT22;6073;53.230;10.444;2023-08-24T12:14:07;26.80;99.90
12025;DHT22;6073;53.230;10.444;2023-08-24T12:16:35;26.70;99.90
12025;DHT22;6073;53.230;10.444;2023-08-24T12:19:01;26.80;99.90
12025;DHT22;6073;53.230;10.444;2023-08-24T12:21:30;26.90;99.90
12025;DHT22;6073;53.230;10.444;2023-08-24T12:24:03;26.80;99.90
12025;DHT22;6073;53.230;10.444;2023-08-24T12:26:32;27.10;99.90
12025;DHT22;6073;53.230;10.444;2023-08-24T12:29:08;27.10;99.90
12025;DHT22;6073;53.230;10.444;2023-08-24T12:31:35;27.50;99.90
12025;DHT22;6073;53.230;10.444;2023-08-24T12:34:05;27.70;99.90
12025;DHT22;6073;53.230;10.444;2023-08-24T12:36:37;27.90;99.90
12025;DHT22;6073;53.230;10.444;2023-08-24T12:39:04;27.90;99.90
12025;DHT22;6073;53.230;10.444;2023-08-24T12:41:31;28.00;99.90
12025;DHT22;6073;53.230;10.444;2023-08-24T12:43:56;27.60;99.90
12025;DHT22;6073;53.230;10.444;2023-08-24T12:46:23;27.60;99.90
12025;DHT22;6073;53.230;10.444;2023-08-24T12:48:49;27.20;99.90
12025;DHT22;6073;53.230;10.444;2023-08-24T12:51:15;27.10;99.90
12025;DHT22;6073;53.230;10.444;2023-08-24T12:53:41;27.10;99.90
12025;DHT22;6073;53.230;10.444;2023-08-24T12:56:07;27.20;99.90
12025;DHT22;6073;53.230;10.444;2023-08-24T12:58:32;27.20;99.90
12025;DHT22;6073;53.230;10.444;2023-08-24T13:00:59;27.10;99.90
12025;DHT22;6073;53.230;10.444;2023-08-24T13:03:25;26.80;99.90
12025;DHT22;6073;53.230;10.444;2023-08-24T13:05:50;26.60;99.90
12025;DHT22;6073;53.230;10.444;2023-08-24T13:08:16;26.50;99.90
12025;DHT22;6073;53.230;10.444;2023-08-24T13:10:41;26.40;99.90
12025;DHT22;6073;53.230;10.444;2023-08-24T13:13:07;26.50;99.90
12025;DHT22;6073;53.230;10.444;2023-08-24T13:15:33;26.80;99.90
12025;DHT22;6073;53.230;10.444;2023-08-24T13:17:59;26.90;99.90
12025;DHT22;6073;53.230;10.444;2023-08-24T13:20:25;26.90;99.90
12025;DHT22;6073;53.230;10.444;2023-08-24T13:22:53;26.70;99.90
12025;DHT22;6073;53.230;10.444;2023-08-24T13:25:19;26.80;99.90
12025;DHT22;6073;53.230;10.444;2023-08-24T13:27:45;26.80;99.90
12025;DHT22;6073;53.230;10.444;2023-08-24T13:30:10;26.70;99.90
12025;DHT22;6073;53.230;10.444;2023-08-24T13:32:36;26.60;99.90
12025;DHT22;6073;53.230;10.444;2023-08-24T13:35:02;26.50;99.90
12025;DHT22;6073;53.230;10.444;2023-08-24T13:37:28;26.60;99.90
12025;DHT22;6073;53.230;10.444;2023-08-24T13:39:54;26.60;99.90
12025;DHT22;6073;53.230;10.444;2023-08-24T13:42:19;26.70;99.90
12025;DHT22;6073;53.230;10.444;2023-08-24T13:44:45;26.80;99.90
12025;DHT22;6073;53.230;10.444;2023-08-24T13:47:11;26.80;99.90
12025;DHT22;6073;53.230;10.444;2023-08-24T13:49:37;26.80;99.90
12025;DHT22;6073;53.230;10.444;2023-08-24T13:52:03;27.00;99.90
12025;DHT22;6073;53.230;10.444;2023-08-24T13:54:28;27.10;99.90
12025;DHT22;6073;53.230;10.444;2023-08-24T13:56:55;27.00;99.90
12025;DHT22;6073;53.230;10.444;2023-08-24T13:59:21;26.90;99.90
12025;DHT22;6073;53.230;10.444;2023-08-24T14:01:47;26.80;99.90
12025;DHT22;6073;53.230;10.444;2023-08-24T14:04:13;26.90;99.90
12025;DHT22;6073;53.230;10.444;2023-08-24T14:06:39;27.00;99.90
12025;DHT22;6073;53.230;10.444;2023-08-24T14:09:04;27.20;99.90
12025;DHT22;6073;53.230;10.444;2023-08-24T14:11:30;27.30;99.90
12025;DHT22;6073;53.230;10.444;2023-08-24T14:13:57;27.30;99.90
12025;DHT22;6073;53.230;10.444;2023-08-24T14:16:23;27.50;99.90
12025;DHT22;6073;53.230;10.444;2023-08-24T14:18:48;27.40;99.90
12025;DHT22;6073;53.230;10.444;2023-08-24T14:21:15;27.50;99.90
12025;DHT22;6073;53.230;10.444;2023-08-24T14:23:44;27.50;99.90
12025;DHT22;6073;53.230;10.444;2023-08-24T14:26:12;27.60;99.90
12025;DHT22;6073;53.230;10.444;2023-08-24T14:28:54;27.60;99.90
12025;DHT22;6073;53.230;10.444;2023-08-24T14:31:23;27.50;99.90
12025;DHT22;6073;53.230;10.444;2023-08-24T14:33:50;27.40;99.90
12025;DHT22;6073;53.230;10.444;2023-08-24T14:36:16;27.40;99.90
12025;DHT22;6073;53.230;10.444;2023-08-24T14:38:42;27.30;99.90
12025;DHT22;6073;53.230;10.444;2023-08-24T14:41:12;27.30;99.90
12025;DHT22;6073;53.230;10.444;2023-08-24T14:43:38;27.30;99.90
12025;DHT22;6073;53.230;10.444;2023-08-24T14:46:05;27.10;99.90
12025;DHT22;6073;53.230;10.444;2023-08-24T14:48:30;27.10;99.90
12025;DHT22;6073;53.230;10.444;2023-08-24T14:50:56;27.10;99.90
12025;DHT22;6073;53.230;10.444;2023-08-24T14:53:23;26.90;99.90
12025;DHT22;6073;53.230;10.444;2023-08-24T14:55:49;26.80;99.90
12025;DHT22;6073;53.230;10.444;2023-08-24T14:58:15;26.80;99.90
12025;DHT22;6073;53.230;10.444;2023-08-24T15:00:40;26.80;99.90
12025;DHT22;6073;53.230;10.444;2023-08-24T15:03:06;26.80;99.90
12025;DHT22;6073;53.230;10.444;2023-08-24T15:05:41;26.80;99.90
12025;DHT22;6073;53.230;10.444;2023-08-24T15:08:07;26.70;99.90
12025;DHT22;6073;53.230;10.444;2023-08-24T15:10:33;26.70;99.90
12025;DHT22;6073;53.230;10.444;2023-08-24T15:12:58;26.80;99.90
12025;DHT22;6073;53.230;10.444;2023-08-24T15:15:24;26.70;99.90
12025;DHT22;6073;53.230;10.444;2023-08-24T15:17:49;26.60;99.90
12025;DHT22;6073;53.230;10.444;2023-08-24T15:20:15;26.60;99.90
12025;DHT22;6073;53.230;10.444;2023-08-24T15:22:41;26.50;99.90
12025;DHT22;6073;53.230;10.444;2023-08-24T15:25:07;26.40;99.90
12025;DHT22;6073;53.230;10.444;2023-08-24T15:27:33;26.40;99.90
12025;DHT22;6073;53.230;10.444;2023-08-24T15:29:58;26.30;99.90
12025;DHT22;6073;53.230;10.444;2023-08-24T15:32:26;26.30;99.90
12025;DHT22;6073;53.230;10.444;2023-08-24T15:34:52;26.30;99.90
12025;DHT22;6073;53.230;10.444;2023-08-24T15:37:19;26.20;99.90